createdAt,value
2019-04-28T00:00:47.846Z,94811.09
2019-04-28T00:03:16.460Z,94814.29
2019-04-28T00:05:45.060Z,94810.12
2019-04-28T00:08:13.663Z,94809.56
2019-04-28T00:10:42.374Z,94810.12
2019-04-28T00:13:11.073Z,94812.20
2019-04-28T00:15:41.667Z,94810.02
2019-04-28T00:18:11.928Z,94808.30
2019-04-28T00:20:58.275Z,94810.92
2019-04-28T00:23:51.865Z,94810.83
2019-04-28T00:26:52.052Z,94808.21
2019-04-28T00:29:21.048Z,94811.94
2019-04-28T00:31:51.297Z,94810.63
2019-04-28T00:34:21.249Z,94809.87
2019-04-28T00:36:55.465Z,94809.59
2019-04-28T00:39:24.080Z,94810.13
2019-04-28T00:41:52.915Z,94811.87
2019-04-28T00:44:22.393Z,94812.71
2019-04-28T00:46:51.334Z,94809.10
2019-04-28T00:49:38.948Z,94813.23
2019-04-28T00:52:08.017Z,94810.37
2019-04-28T00:54:36.709Z,94809.09
2019-04-28T00:57:05.928Z,94812.20
2019-04-28T00:59:34.535Z,94808.83
2019-04-28T01:02:08.152Z,94806.20
2019-04-28T01:04:36.753Z,94805.16
2019-04-28T01:07:05.404Z,94811.83
2019-04-28T01:09:34.087Z,94806.41
2019-04-28T01:12:02.749Z,94810.34
2019-04-28T01:14:31.362Z,94812.58
2019-04-28T01:17:07.603Z,94809.33
2019-04-28T01:19:39.835Z,94809.81
2019-04-28T01:22:12.335Z,94813.22
2019-04-28T01:24:41.516Z,94808.39
2019-04-28T01:27:41.505Z,94814.37
2019-04-28T01:30:16.585Z,94812.72
2019-04-28T01:32:51.192Z,94816.09
2019-04-28T01:35:21.054Z,94812.41
2019-04-28T01:37:50.494Z,94810.97
2019-04-28T01:40:20.516Z,94809.90
2019-04-28T01:42:49.953Z,94812.08
2019-04-28T01:45:20.594Z,94815.30
2019-04-28T01:47:50.422Z,94816.73
2019-04-28T01:50:20.510Z,94819.73
2019-04-28T01:52:51.384Z,94819.69
2019-04-28T01:55:20.307Z,94817.39
2019-04-28T01:57:49.783Z,94813.73
2019-04-28T02:00:25.053Z,94816.59
2019-04-28T02:02:50.603Z,94816.16
2019-04-28T02:05:19.742Z,94813.03
2019-04-28T02:07:50.492Z,94809.17
2019-04-28T02:10:20.173Z,94815.89
2019-04-28T02:12:50.342Z,94815.48
2019-04-28T02:15:20.170Z,94816.80
2019-04-28T02:17:50.001Z,94815.89
2019-04-28T02:20:20.701Z,94822.50
2019-04-28T02:22:54.971Z,94820.02
2019-04-28T02:25:23.558Z,94825.20
2019-04-28T02:27:52.412Z,94825.61
2019-04-28T02:30:32.520Z,94826.17
2019-04-28T02:32:51.961Z,94821.81
2019-04-28T02:35:21.321Z,94824.61
2019-04-28T02:37:50.717Z,94832.13
2019-04-28T02:40:20.677Z,94829.96
2019-04-28T02:42:51.914Z,94828.73
2019-04-28T02:45:21.843Z,94834.88
2019-04-28T02:47:52.610Z,94831.13
2019-04-28T02:50:30.422Z,94833.03
2019-04-28T02:53:10.959Z,94837.30
2019-04-28T02:55:41.179Z,94840.09
2019-04-28T02:58:10.698Z,94843.95
2019-04-28T03:00:42.927Z,94839.08
2019-04-28T03:03:11.205Z,94839.49
2019-04-28T03:05:41.265Z,94840.94
2019-04-28T03:08:11.143Z,94844.92
2019-04-28T03:10:40.955Z,94837.41
2019-04-28T03:13:10.764Z,94844.87
2019-04-28T03:15:41.545Z,94843.94
2019-04-28T03:18:11.456Z,94840.34
2019-04-28T03:20:41.883Z,94850.98
2019-04-28T03:23:12.409Z,94848.86
2019-04-28T03:26:01.401Z,94852.33
2019-04-28T03:28:35.110Z,94855.45
2019-04-28T03:31:48.993Z,94848.78
2019-04-28T03:33:49.290Z,94852.89
2019-04-28T03:36:16.411Z,94854.94
2019-04-28T03:38:45.086Z,94855.33
2019-04-28T03:41:13.704Z,94857.08
2019-04-28T03:43:42.307Z,94853.46
2019-04-28T03:46:16.213Z,94858.58
2019-04-28T03:48:45.086Z,94858.95
2019-04-28T03:51:13.813Z,94858.70
2019-04-28T03:53:42.378Z,94860.19
2019-04-28T03:56:11.469Z,94853.38
2019-04-28T03:58:40.756Z,94852.64
2019-04-28T04:01:10.731Z,94853.88
2019-04-28T04:03:41.658Z,94851.16
2019-04-28T04:06:10.748Z,94854.87
2019-04-28T04:08:40.860Z,94860.59
2019-04-28T04:11:20.193Z,94854.53
2019-04-28T04:14:04.798Z,94855.14
2019-04-28T04:17:01.271Z,94859.68
2019-04-28T04:19:33.286Z,94854.66
2019-04-28T04:22:01.989Z,94855.27
2019-04-28T04:24:30.831Z,94861.95
2019-04-28T04:27:00.873Z,94855.76
2019-04-28T04:29:30.961Z,94861.28
2019-04-28T04:32:11.622Z,94857.56
2019-04-28T04:34:30.348Z,94860.48
2019-04-28T04:37:00.701Z,94859.40
2019-04-28T04:39:30.418Z,94858.14
2019-04-28T04:42:00.660Z,94861.70
2019-04-28T04:44:31.044Z,94856.61
2019-04-28T04:47:00.998Z,94865.94
2019-04-28T04:49:31.628Z,94864.77
2019-04-28T04:52:00.599Z,94872.17
2019-04-28T04:54:32.032Z,94871.02
2019-04-28T04:57:00.113Z,94870.00
2019-04-28T04:59:30.891Z,94875.77
2019-04-28T05:02:32.226Z,94875.25
2019-04-28T05:05:17.037Z,94881.47
2019-04-28T05:07:45.629Z,94877.45
2019-04-28T05:10:14.334Z,94881.99
2019-04-28T05:12:42.939Z,94888.08
2019-04-28T05:15:11.551Z,94881.23
2019-04-28T05:17:40.301Z,94888.80
2019-04-28T05:20:09.889Z,94888.28
2019-04-28T05:22:44.464Z,94893.55
2019-04-28T05:25:18.208Z,94897.20
2019-04-28T05:27:46.810Z,94897.55
2019-04-28T05:30:15.512Z,94902.31
2019-04-28T05:32:49.592Z,94908.84
2019-04-28T05:35:17.650Z,94909.00
2019-04-28T05:37:44.863Z,94914.48
2019-04-28T05:40:13.549Z,94915.20
2019-04-28T05:43:00.480Z,94914.63
2019-04-28T05:45:32.181Z,94924.73
2019-04-28T05:48:01.103Z,94927.55
2019-04-28T05:50:51.753Z,94926.17
2019-04-28T05:53:45.560Z,94932.09
2019-04-28T05:56:33.183Z,94933.99
2019-04-28T05:59:12.602Z,94942.45
2019-04-28T06:02:00.655Z,94945.19
2019-04-28T06:04:30.487Z,94940.27
2019-04-28T06:07:05.681Z,94937.93
2019-04-28T06:09:40.917Z,94947.80
2019-04-28T06:12:11.796Z,94947.55
2019-04-28T06:14:40.620Z,94952.75
2019-04-28T06:17:10.799Z,94954.04
2019-04-28T06:19:40.326Z,94950.41
2019-04-28T06:22:09.017Z,94954.51
2019-04-28T06:24:37.950Z,94948.84
2019-04-28T06:27:06.689Z,94954.27
2019-04-28T06:29:35.296Z,94957.13
2019-04-28T06:32:03.928Z,94957.13
2019-04-28T06:34:32.561Z,94960.99
2019-04-28T06:37:01.175Z,94960.63
2019-04-28T06:39:29.766Z,94963.11
2019-04-28T06:41:58.713Z,94964.34
2019-04-28T06:44:27.317Z,94972.67
2019-04-28T06:46:55.921Z,94976.72
2019-04-28T06:49:24.540Z,94979.16
2019-04-28T06:51:53.155Z,94975.59
2019-04-28T06:54:21.997Z,94977.66
2019-04-28T06:56:50.609Z,94978.10
2019-04-28T06:59:19.476Z,94978.10
2019-04-28T07:01:48.090Z,94978.58
2019-04-28T07:04:16.675Z,94983.28
2019-04-28T07:06:45.302Z,94987.10
2019-04-28T07:09:13.976Z,94987.98
2019-04-28T07:11:42.846Z,94991.13
2019-04-28T07:14:11.455Z,94990.20
2019-04-28T07:16:40.074Z,94988.17
2019-04-28T07:19:08.933Z,94987.25
2019-04-28T07:21:42.497Z,94983.62
2019-04-28T07:24:11.108Z,94986.11
2019-04-28T07:26:39.706Z,94983.14
2019-04-28T07:29:08.308Z,94983.58
2019-04-28T07:31:36.895Z,94985.17
2019-04-28T07:34:05.594Z,94981.64
2019-04-28T07:36:34.263Z,94984.39
2019-04-28T07:39:02.856Z,94992.14
2019-04-28T07:41:31.458Z,94987.64
2019-04-28T07:44:00.325Z,94992.87
2019-04-28T07:46:28.967Z,95000.05
2019-04-28T07:48:57.577Z,94994.84
2019-04-28T07:51:28.960Z,94995.28
2019-04-28T07:54:04.870Z,94994.94
2019-04-28T07:56:32.994Z,94998.63
2019-04-28T07:59:02.103Z,95001.81
2019-04-28T08:01:30.814Z,95002.25
2019-04-28T08:03:59.402Z,95003.30
2019-04-28T08:06:28.066Z,95007.16
2019-04-28T08:08:56.889Z,95008.59
2019-04-28T08:11:25.522Z,95009.45
2019-04-28T08:13:54.128Z,95015.45
2019-04-28T08:16:22.732Z,95013.40
2019-04-28T08:18:51.338Z,95012.10
2019-04-28T08:21:19.934Z,95014.70
2019-04-28T08:23:48.773Z,95015.03
2019-04-28T08:26:17.382Z,95017.97
2019-04-28T08:28:46.078Z,95020.91
2019-04-28T08:31:16.333Z,95029.15
2019-04-28T08:34:01.298Z,95034.16
2019-04-28T08:36:19.205Z,95032.75
2019-04-28T08:38:47.807Z,95026.41
2019-04-28T08:41:16.522Z,95034.80
2019-04-28T08:43:45.305Z,95038.33
2019-04-28T08:46:13.990Z,95041.60
2019-04-28T08:48:42.928Z,95037.98
2019-04-28T08:51:11.530Z,95036.39
2019-04-28T08:53:40.133Z,95034.66
2019-04-28T08:56:08.807Z,95035.27
2019-04-28T08:58:37.658Z,95033.81
2019-04-28T09:01:06.505Z,95039.45
2019-04-28T09:03:35.361Z,95037.13
2019-04-28T09:06:03.948Z,95048.77
2019-04-28T09:08:32.826Z,95054.59
2019-04-28T09:11:01.988Z,95059.03
2019-04-28T09:13:30.604Z,95058.41
2019-04-28T09:15:59.203Z,95061.54
2019-04-28T09:18:27.814Z,95063.96
2019-04-28T09:20:56.483Z,95071.63
2019-04-28T09:23:25.177Z,95067.67
2019-04-28T09:25:53.778Z,95072.94
2019-04-28T09:28:22.390Z,95069.73
2019-04-28T09:30:51.016Z,95075.94
2019-04-28T09:33:19.633Z,95071.81
2019-04-28T09:35:48.516Z,95075.50
2019-04-28T09:38:17.205Z,95075.01
2019-04-28T09:40:45.800Z,95077.31
2019-04-28T09:43:27.788Z,95077.67
2019-04-28T09:46:15.675Z,95078.52
2019-04-28T09:48:44.291Z,95079.11
2019-04-28T09:51:12.914Z,95079.27
2019-04-28T09:53:41.941Z,95081.99
2019-04-28T09:56:10.546Z,95079.98
2019-04-28T09:58:39.157Z,95073.73
2019-04-28T10:01:08.359Z,95077.28
2019-04-28T10:03:36.949Z,95079.18
2019-04-28T10:06:05.625Z,95079.61
2019-04-28T10:08:36.394Z,95080.39
2019-04-28T10:11:04.569Z,95078.39
2019-04-28T10:13:33.186Z,95079.41
2019-04-28T10:16:02.045Z,95080.91
2019-04-28T10:18:30.925Z,95078.66
2019-04-28T10:20:59.524Z,95078.20
2019-04-28T10:23:28.410Z,95076.16
2019-04-28T10:25:57.312Z,95077.77
2019-04-28T10:28:25.943Z,95073.70
2019-04-28T10:30:54.790Z,95070.88
2019-04-28T10:33:23.957Z,95073.28
2019-04-28T10:35:52.560Z,95065.59
2019-04-28T10:38:21.199Z,95077.83
2019-04-28T10:41:03.619Z,95071.77
2019-04-28T10:43:32.229Z,95068.28
2019-04-28T10:46:00.930Z,95075.69
2019-04-28T10:48:30.012Z,95070.94
2019-04-28T10:51:01.151Z,95067.11
2019-04-28T10:53:28.972Z,95070.56
2019-04-28T10:55:57.611Z,95064.95
2019-04-28T10:58:26.248Z,95065.88
2019-04-28T11:00:54.851Z,95069.51
2019-04-28T11:03:23.925Z,95073.17
2019-04-28T11:05:52.541Z,95077.53
2019-04-28T11:08:43.137Z,95073.79
2019-04-28T11:11:20.093Z,95069.83
2019-04-28T11:13:49.026Z,95070.39
2019-04-28T11:16:19.628Z,95071.88
2019-04-28T11:18:48.258Z,95071.36
2019-04-28T11:21:16.926Z,95070.30
2019-04-28T11:23:45.849Z,95076.23
2019-04-28T11:26:14.558Z,95075.58
2019-04-28T11:28:43.160Z,95078.69
2019-04-28T11:31:11.784Z,95083.92
2019-04-28T11:33:53.388Z,95082.27
2019-04-28T11:36:22.239Z,95089.62
2019-04-28T11:38:50.880Z,95089.77
2019-04-28T11:41:19.554Z,95097.19
2019-04-28T11:43:48.178Z,95095.35
2019-04-28T11:46:18.626Z,95104.66
2019-04-28T11:48:47.226Z,95102.14
2019-04-28T11:51:15.825Z,95108.44
2019-04-28T11:53:44.491Z,95108.82
2019-04-28T11:56:13.193Z,95110.18
2019-04-28T11:58:41.756Z,95114.17
2019-04-28T12:01:11.424Z,95116.99
2019-04-28T12:03:40.101Z,95119.25
2019-04-28T12:06:08.984Z,95126.84
2019-04-28T12:08:37.568Z,95123.85
2019-04-28T12:11:28.367Z,95123.98
2019-04-28T12:14:13.634Z,95118.47
2019-04-28T12:16:55.759Z,95121.00
2019-04-28T12:19:33.876Z,95112.59
2019-04-28T12:22:02.507Z,95122.27
2019-04-28T12:24:31.683Z,95128.60
2019-04-28T12:27:00.563Z,95135.40
2019-04-28T12:29:29.155Z,95147.56
2019-04-28T12:31:57.754Z,95144.91
2019-04-28T12:34:26.630Z,95141.91
2019-04-28T12:36:55.613Z,95144.86
2019-04-28T12:39:24.225Z,95145.60
2019-04-28T12:41:53.166Z,95148.40
2019-04-28T12:44:21.801Z,95147.73
2019-04-28T12:46:50.427Z,95153.37
2019-04-28T12:49:24.470Z,95151.05
2019-04-28T12:51:53.124Z,95156.34
2019-04-28T12:54:23.924Z,95156.39
2019-04-28T12:56:52.533Z,95160.17
2019-04-28T12:59:26.243Z,95155.50
2019-04-28T13:02:02.708Z,95158.36
2019-04-28T13:04:35.670Z,95162.29
2019-04-28T13:07:13.371Z,95167.67
2019-04-28T13:09:42.002Z,95161.48
2019-04-28T13:12:10.606Z,95171.39
2019-04-28T13:14:39.474Z,95171.75
2019-04-28T13:17:08.070Z,95179.01
2019-04-28T13:19:36.741Z,95180.21
2019-04-28T13:22:05.824Z,95173.52
2019-04-28T13:24:34.389Z,95171.95
2019-04-28T13:27:03.034Z,95176.65
2019-04-28T13:29:31.672Z,95170.13
2019-04-28T13:32:00.397Z,95170.83
2019-04-28T13:34:30.864Z,95169.73
2019-04-28T13:36:59.738Z,95169.62
2019-04-28T13:39:36.939Z,95168.63
2019-04-28T13:42:05.746Z,95169.22
2019-04-28T13:45:08.418Z,95165.74
2019-04-28T13:47:37.380Z,95175.51
2019-04-28T13:50:17.996Z,95161.96
2019-04-28T13:52:46.731Z,95159.09
2019-04-28T13:55:40.330Z,95168.19
2019-04-28T13:58:09.020Z,95164.76
2019-04-28T14:01:14.945Z,95166.20
2019-04-28T14:04:05.622Z,95156.52
2019-04-28T14:06:37.280Z,95165.59
2019-04-28T14:09:10.563Z,95171.62
2019-04-28T14:11:39.537Z,95160.95
2019-04-28T14:14:08.187Z,95158.81
2019-04-28T14:16:37.050Z,95163.59
2019-04-28T14:19:05.985Z,95154.24
2019-04-28T14:21:34.618Z,95161.22
2019-04-28T14:24:03.216Z,95154.16
2019-04-28T14:26:32.084Z,95158.20
2019-04-28T14:29:01.413Z,95160.69
2019-04-28T14:31:30.477Z,95159.47
2019-04-28T14:33:59.393Z,95165.88
2019-04-28T14:36:41.163Z,95164.61
2019-04-28T14:38:58.662Z,95162.51
2019-04-28T14:41:27.286Z,95165.00
2019-04-28T14:43:56.150Z,95168.77
2019-04-28T14:46:25.496Z,95161.66
2019-04-28T14:48:54.397Z,95164.95
2019-04-28T14:51:23.430Z,95161.22
2019-04-28T14:53:52.251Z,95156.99
2019-04-28T14:56:20.895Z,95154.98
2019-04-28T14:58:49.517Z,95160.33
2019-04-28T15:01:30.682Z,95161.67
2019-04-28T15:04:01.528Z,95157.38
2019-04-28T15:06:38.946Z,95156.64
2019-04-28T15:09:25.319Z,95157.66
2019-04-28T15:12:02.788Z,95159.20
2019-04-28T15:14:31.450Z,95149.98
2019-04-28T15:17:00.299Z,95148.20
2019-04-28T15:19:29.399Z,95149.32
2019-04-28T15:21:58.596Z,95156.47
2019-04-28T15:24:27.215Z,95154.89
2019-04-28T15:26:56.017Z,95155.77
2019-04-28T15:29:24.956Z,95152.78
2019-04-28T15:31:53.977Z,95162.45
2019-04-28T15:34:22.835Z,95164.03
2019-04-28T15:36:51.448Z,95166.67
2019-04-28T15:39:20.273Z,95166.84
2019-04-28T15:41:49.127Z,95166.97
2019-04-28T15:44:18.042Z,95164.19
2019-04-28T15:46:46.672Z,95155.44
2019-04-28T15:49:15.268Z,95154.87
2019-04-28T15:51:43.887Z,95155.14
2019-04-28T15:54:12.513Z,95156.84
2019-04-28T15:56:44.533Z,95162.97
2019-04-28T15:59:13.137Z,95157.88
2019-04-28T16:01:41.831Z,95161.75
2019-04-28T16:04:10.708Z,95154.41
2019-04-28T16:06:39.500Z,95161.33
2019-04-28T16:09:12.178Z,95164.27
2019-04-28T16:11:41.685Z,95171.16
2019-04-28T16:14:10.928Z,95174.31
2019-04-28T16:16:39.620Z,95182.51
2019-04-28T16:19:08.315Z,95174.36
2019-04-28T16:21:36.992Z,95175.44
2019-04-28T16:24:06.773Z,95169.53
2019-04-28T16:26:35.613Z,95181.94
2019-04-28T16:29:04.778Z,95183.39
2019-04-28T16:31:33.399Z,95183.72
2019-04-28T16:34:02.018Z,95190.33
2019-04-28T16:36:30.669Z,95192.27
2019-04-28T16:38:59.799Z,95197.85
2019-04-28T16:41:28.451Z,95203.73
2019-04-28T16:43:57.129Z,95198.36
2019-04-28T16:46:25.746Z,95202.02
2019-04-28T16:48:54.780Z,95205.09
2019-04-28T16:51:23.602Z,95207.28
2019-04-28T16:53:52.464Z,95212.44
2019-04-28T16:56:32.304Z,95209.55
2019-04-28T16:59:25.236Z,95211.62
2019-04-28T17:02:03.142Z,95210.26
2019-04-28T17:04:32.001Z,95211.78
2019-04-28T17:07:00.627Z,95214.56
2019-04-28T17:09:29.841Z,95219.77
2019-04-28T17:11:58.444Z,95222.16
2019-04-28T17:14:27.312Z,95229.72
2019-04-28T17:16:55.996Z,95228.28
2019-04-28T17:19:24.960Z,95227.38
2019-04-28T17:21:53.935Z,95228.25
2019-04-28T17:24:22.601Z,95235.61
2019-04-28T17:26:51.182Z,95240.38
2019-04-28T17:29:20.032Z,95240.12
2019-04-28T17:31:49.794Z,95242.70
2019-04-28T17:34:18.410Z,95244.42
2019-04-28T17:36:47.216Z,95242.85
2019-04-28T17:39:18.968Z,95241.67
2019-04-28T17:41:47.672Z,95248.40
2019-04-28T17:44:17.350Z,95246.77
2019-04-28T17:46:46.211Z,95245.42
2019-04-28T17:49:15.061Z,95247.50
2019-04-28T17:51:43.811Z,95251.38
2019-04-28T17:54:12.626Z,95247.03
2019-04-28T17:56:41.616Z,95250.85
2019-04-28T17:59:10.520Z,95256.48
2019-04-28T18:01:56.733Z,95260.02
2019-04-28T18:04:44.716Z,95270.95
2019-04-28T18:07:24.587Z,95265.05
2019-04-28T18:09:53.378Z,95277.66
2019-04-28T18:12:22.070Z,95277.59
2019-04-28T18:14:52.299Z,95271.59
2019-04-28T18:17:38.481Z,95276.48
2019-04-28T18:20:08.120Z,95282.05
2019-04-28T18:22:36.748Z,95286.64
2019-04-28T18:25:05.601Z,95294.89
2019-04-28T18:27:34.301Z,95295.17
2019-04-28T18:30:03.105Z,95299.19
2019-04-28T18:32:51.229Z,95307.16
2019-04-28T18:35:34.548Z,95312.56
2019-04-28T18:38:09.500Z,95314.67
2019-04-28T18:40:48.100Z,95317.82
2019-04-28T18:43:35.772Z,95391.07
2019-04-28T18:46:05.098Z,95335.55
2019-04-28T18:48:36.200Z,95335.55
2019-04-28T18:51:04.229Z,95344.93
2019-04-28T18:53:32.908Z,95344.93
2019-04-28T18:56:01.877Z,95343.87
2019-04-28T18:58:30.986Z,95350.38
2019-04-28T19:01:09.688Z,95362.09
2019-04-28T19:03:38.793Z,95362.09
2019-04-28T19:06:07.472Z,95362.66
2019-04-28T19:08:49.277Z,95370.47
2019-04-28T19:11:27.768Z,95380.01
2019-04-28T19:14:00.449Z,95382.37
2019-04-28T19:16:50.632Z,95383.17
2019-04-28T19:19:19.964Z,95390.20
2019-04-28T19:21:55.161Z,95393.91
2019-04-28T19:24:24.251Z,95395.52
2019-04-28T19:26:53.197Z,95398.56
2019-04-28T19:29:22.097Z,95390.88
2019-04-28T19:31:50.934Z,95399.16
2019-04-28T19:34:19.808Z,95404.45
2019-04-28T19:36:48.521Z,95407.51
2019-04-28T19:39:17.454Z,95409.41
2019-04-28T19:41:46.301Z,95405.20
2019-04-28T19:44:14.993Z,95405.23
2019-04-28T19:46:43.847Z,95406.78
2019-04-28T19:49:12.447Z,95404.67
2019-04-28T19:51:41.060Z,95416.47
2019-04-28T19:54:10.426Z,95407.78
2019-04-28T19:56:50.845Z,95414.81
2019-04-28T19:59:23.491Z,95415.20
2019-04-28T20:01:52.184Z,95417.48
2019-04-28T20:04:21.228Z,95413.30
2019-04-28T20:06:50.304Z,95425.86
2019-04-28T20:09:18.886Z,95422.35
2019-04-28T20:11:47.591Z,95431.28
2019-04-28T20:14:16.392Z,95429.69
2019-04-28T20:16:45.286Z,95424.83
2019-04-28T20:19:13.887Z,95429.23
2019-04-28T20:21:42.700Z,95422.28
2019-04-28T20:24:11.518Z,95424.11
2019-04-28T20:26:40.122Z,95418.28
2019-04-28T20:29:08.775Z,95427.36
2019-04-28T20:31:37.718Z,95425.81
2019-04-28T20:34:06.432Z,95431.63
2019-04-28T20:36:52.017Z,95430.81
2019-04-28T20:39:27.380Z,95435.70
2019-04-28T20:41:57.653Z,95434.06
2019-04-28T20:44:26.263Z,95436.53
2019-04-28T20:46:54.866Z,95431.62
2019-04-28T20:49:23.712Z,95437.86
2019-04-28T20:51:52.309Z,95443.72
2019-04-28T20:54:21.178Z,95444.98
2019-04-28T20:56:50.038Z,95444.04
2019-04-28T20:59:19.402Z,95443.99
2019-04-28T21:01:48.445Z,95447.72
2019-04-28T21:04:17.146Z,95451.50
2019-04-28T21:06:45.870Z,95450.77
2019-04-28T21:09:14.745Z,95454.10
2019-04-28T21:11:43.477Z,95457.47
2019-04-28T21:14:12.056Z,95457.21
2019-04-28T21:16:40.691Z,95452.09
2019-04-28T21:19:09.470Z,95453.52
2019-04-28T21:21:38.108Z,95456.90
2019-04-28T21:24:06.810Z,95457.48
2019-04-28T21:26:35.705Z,95461.05
2019-04-28T21:29:04.380Z,95461.52
2019-04-28T21:31:33.489Z,95457.55
2019-04-28T21:34:02.549Z,95468.77
2019-04-28T21:36:31.164Z,95461.20
2019-04-28T21:38:59.757Z,95466.87
2019-04-28T21:41:28.603Z,95468.13
2019-04-28T21:44:14.987Z,95463.81
2019-04-28T21:46:53.962Z,95465.02
2019-04-28T21:49:30.320Z,95464.36
2019-04-28T21:51:58.933Z,95465.16
2019-04-28T21:54:27.562Z,95470.31
2019-04-28T21:56:56.174Z,95466.73
2019-04-28T21:59:24.792Z,95469.94
2019-04-28T22:01:53.413Z,95467.83
2019-04-28T22:04:22.076Z,95467.92
2019-04-28T22:06:50.709Z,95473.02
2019-04-28T22:09:19.472Z,95475.39
2019-04-28T22:11:48.063Z,95473.02
2019-04-28T22:14:16.673Z,95475.20
2019-04-28T22:16:45.740Z,95487.13
2019-04-28T22:19:14.329Z,95488.59
2019-04-28T22:21:42.945Z,95485.79
2019-04-28T22:24:35.364Z,95490.16
2019-04-28T22:27:04.202Z,95493.47
2019-04-28T22:29:32.798Z,95493.40
2019-04-28T22:32:01.721Z,95486.76
2019-04-28T22:34:30.561Z,95485.92
2019-04-28T22:36:59.262Z,95485.91
2019-04-28T22:39:27.890Z,95493.52
2019-04-28T22:41:56.645Z,95498.25
2019-04-28T22:44:25.350Z,95490.43
2019-04-28T22:46:54.063Z,95491.51
2019-04-28T22:49:22.705Z,95491.88
2019-04-28T22:51:51.305Z,95495.11
2019-04-28T22:54:29.499Z,95492.47
2019-04-28T22:57:05.693Z,95507.40
2019-04-28T22:59:38.269Z,95500.91
2019-04-28T23:02:13.487Z,95515.97
2019-04-28T23:04:58.246Z,95516.56
2019-04-28T23:07:27.175Z,95515.00
2019-04-28T23:09:56.255Z,95519.55
2019-04-28T23:12:24.929Z,95525.70
2019-04-28T23:14:53.888Z,95524.00
2019-04-28T23:17:22.799Z,95523.59
2019-04-28T23:19:51.414Z,95522.88
2019-04-28T23:22:46.987Z,95521.72
2019-04-28T23:25:14.258Z,95525.94
2019-04-28T23:27:42.864Z,95519.60
2019-04-28T23:30:11.547Z,95523.87
2019-04-28T23:32:40.147Z,95527.22
2019-04-28T23:35:08.872Z,95526.86
2019-04-28T23:37:37.560Z,95520.19
2019-04-28T23:40:07.092Z,95522.46
2019-04-28T23:42:50.545Z,95526.25
2019-04-28T23:45:19.156Z,95520.60
2019-04-28T23:47:47.753Z,95520.45
2019-04-28T23:50:18.142Z,95527.32
2019-04-28T23:52:53.463Z,95537.74
2019-04-28T23:55:24.031Z,95533.92
2019-04-28T23:57:52.658Z,95534.52
